sensor_id;sensor_type;location;lat;lon;timestamp;pressure;altitude;pressure_sealevel;temperature;humidity
53868;BME280;41577;47.470;19.080;2023-08-24T00:00:04;100292.97;;;24.27;100.00
53868;BME280;41577;47.470;19.080;2023-08-24T00:00:16;100290.22;;;24.27;100.00
53868;BME280;41577;47.470;19.080;2023-08-24T00:00:28;100292.97;;;24.27;100.00
53868;BME280;41577;47.470;19.080;2023-08-24T00:00:41;100289.69;;;24.25;100.00
53868;BME280;41577;47.470;19.080;2023-08-24T00:00:52;100291.31;;;24.26;100.00
53868;BME280;41577;47.470;19.080;2023-08-24T00:01:04;100292.97;;;24.27;100.00
53868;BME280;41577;47.470;19.080;2023-08-24T00:01:16;100283.94;;;24.27;100.00
53868;BME280;41577;47.470;19.080;2023-08-24T00:01:28;100292.97;;;24.27;100.00
53868;BME280;41577;47.470;19.080;2023-08-24T00:01:40;100291.03;;;24.28;100.00
53868;BME280;41577;47.470;19.080;2023-08-24T00:01:52;100281.19;;;24.27;100.00
53868;BME280;41577;47.470;19.080;2023-08-24T00:02:04;100284.78;;;24.27;100.00
53868;BME280;41577;47.470;19.080;2023-08-24T00:02:15;100294.03;;;24.26;100.00
53868;BME280;41577;47.470;19.080;2023-08-24T00:02:27;100294.56;;;24.28;100.00
53868;BME280;41577;47.470;19.080;2023-08-24T00:02:39;100290.22;;;24.27;100.00
53868;BME280;41577;47.470;19.080;2023-08-24T00:02:51;100291.03;;;24.28;100.00
53868;BME280;41577;47.470;19.080;2023-08-24T00:03:03;100283.94;;;24.27;100.00
53868;BME280;41577;47.470;19.080;2023-08-24T00:03:15;100292.97;;;24.27;100.00
53868;BME280;41577;47.470;19.080;2023-08-24T00:03:27;100291.03;;;24.28;100.00
53868;BME280;41577;47.470;19.080;2023-08-24T00:03:39;100289.13;;;24.28;100.00
53868;BME280;41577;47.470;19.080;2023-08-24T00:03:51;100294.84;;;24.27;100.00
53868;BME280;41577;47.470;19.080;2023-08-24T00:04:03;100292.97;;;24.27;100.00
53868;BME280;41577;47.470;19.080;2023-08-24T00:04:15;100281.19;;;24.27;100.00
53868;BME280;41577;47.470;19.080;2023-08-24T00:04:27;100284.78;;;24.27;100.00
53868;BME280;41577;47.470;19.080;2023-08-24T00:04:39;100283.94;;;24.27;100.00
53868;BME280;41577;47.470;19.080;2023-08-24T00:04:50;100284.78;;;24.27;100.00
53868;BME280;41577;47.470;19.080;2023-08-24T00:05:03;100282.03;;;24.27;100.00
53868;BME280;41577;47.470;19.080;2023-08-24T00:05:15;100277.66;;;24.26;100.00
53868;BME280;41577;47.470;19.080;2023-08-24T00:05:27;100286.97;;;24.25;100.00
53868;BME280;41577;47.470;19.080;2023-08-24T00:05:38;100277.66;;;24.26;100.00
53868;BME280;41577;47.470;19.080;2023-08-24T00:05:51;100278.78;;;24.25;100.00
53868;BME280;41577;47.470;19.080;2023-08-24T00:06:03;100273.31;;;24.25;100.00
53868;BME280;41577;47.470;19.080;2023-08-24T00:06:15;100269.78;;;24.25;100.00
53868;BME280;41577;47.470;19.080;2023-08-24T00:06:26;100277.66;;;24.26;100.00
53868;BME280;41577;47.470;19.080;2023-08-24T00:06:38;100274.13;;;24.26;100.00
53868;BME280;41577;47.470;19.080;2023-08-24T00:06:50;100279.59;;;24.26;100.00
53868;BME280;41577;47.470;19.080;2023-08-24T00:07:03;100277.13;;;24.24;100.00
53868;BME280;41577;47.470;19.080;2023-08-24T00:07:14;100274.41;;;24.24;100.00
53868;BME280;41577;47.470;19.080;2023-08-24T00:07:26;100276.03;;;24.25;100.00
53868;BME280;41577;47.470;19.080;2023-08-24T00:07:38;100279.03;;;24.24;100.00
53868;BME280;41577;47.470;19.080;2023-08-24T00:07:50;100280.69;;;24.25;100.00
53868;BME280;41577;47.470;19.080;2023-08-24T00:08:03;100276.03;;;24.25;100.00
53868;BME280;41577;47.470;19.080;2023-08-24T00:08:15;100277.13;;;24.24;100.00
53868;BME280;41577;47.470;19.080;2023-08-24T00:08:27;100279.03;;;24.24;100.00
53868;BME280;41577;47.470;19.080;2023-08-24T00:08:38;100283.69;;;24.23;100.00
53868;BME280;41577;47.470;19.080;2023-08-24T00:08:50;100281.78;;;24.24;100.00
53868;BME280;41577;47.470;19.080;2023-08-24T00:09:02;100273.59;;;24.24;100.00
53868;BME280;41577;47.470;19.080;2023-08-24T00:09:14;100278.22;;;24.23;100.00
53868;BME280;41577;47.470;19.080;2023-08-24T00:09:26;100276.59;;;24.22;100.00
53868;BME280;41577;47.470;19.080;2023-08-24T00:09:38;100275.50;;;24.23;100.00
53868;BME280;41577;47.470;19.080;2023-08-24T00:09:52;100279.03;;;24.24;100.00
53868;BME280;41577;47.470;19.080;2023-08-24T00:10:06;100282.03;;;24.22;100.00
53868;BME280;41577;47.470;19.080;2023-08-24T00:10:18;100278.50;;;24.21;100.00
53868;BME280;41577;47.470;19.080;2023-08-24T00:10:30;100281.22;;;24.21;100.00
53868;BME280;41577;47.470;19.080;2023-08-24T00:10:43;100283.97;;;24.21;100.00
53868;BME280;41577;47.470;19.080;2023-08-24T00:10:55;100275.78;;;24.21;100.00
53868;BME280;41577;47.470;19.080;2023-08-24T00:11:07;100287.81;;;24.20;100.00
53868;BME280;41577;47.470;19.080;2023-08-24T00:11:19;100281.53;;;24.20;100.00
53868;BME280;41577;47.470;19.080;2023-08-24T00:11:31;100281.53;;;24.20;100.00
53868;BME280;41577;47.470;19.080;2023-08-24T00:11:43;100273.34;;;24.20;100.00
53868;BME280;41577;47.470;19.080;2023-08-24T00:11:55;100286.16;;;24.19;100.00
53868;BME280;41577;47.470;19.080;2023-08-24T00:12:07;100281.53;;;24.20;100.00
53868;BME280;41577;47.470;19.080;2023-08-24T00:12:18;100285.34;;;24.19;100.00
53868;BME280;41577;47.470;19.080;2023-08-24T00:12:32;100279.88;;;24.19;100.00
53868;BME280;41577;47.470;19.080;2023-08-24T00:12:44;100281.00;;;24.18;100.00
53868;BME280;41577;47.470;19.080;2023-08-24T00:12:56;100278.25;;;24.18;100.00
53868;BME280;41577;47.470;19.080;2023-08-24T00:13:08;100268.44;;;24.17;100.00
53868;BME280;41577;47.470;19.080;2023-08-24T00:13:20;100276.34;;;24.18;100.00
53868;BME280;41577;47.470;19.080;2023-08-24T00:13:32;100283.72;;;24.18;100.00
53868;BME280;41577;47.470;19.080;2023-08-24T00:13:44;100284.81;;;24.17;100.00
53868;BME280;41577;47.470;19.080;2023-08-24T00:13:56;100281.00;;;24.18;100.00
53868;BME280;41577;47.470;19.080;2023-08-24T00:14:08;100279.34;;;24.17;100.00
53868;BME280;41577;47.470;19.080;2023-08-24T00:14:20;100280.16;;;24.17;100.00
53868;BME280;41577;47.470;19.080;2023-08-24T00:14:32;100277.72;;;24.16;100.00
53868;BME280;41577;47.470;19.080;2023-08-24T00:14:44;100281.25;;;24.16;100.00
53868;BME280;41577;47.470;19.080;2023-08-24T00:14:56;100281.25;;;24.16;100.00
53868;BME280;41577;47.470;19.080;2023-08-24T00:15:09;100282.06;;;24.17;100.00
53868;BME280;41577;47.470;19.080;2023-08-24T00:15:21;100284.00;;;24.16;100.00
53868;BME280;41577;47.470;19.080;2023-08-24T00:15:33;100284.00;;;24.16;100.00
53868;BME280;41577;47.470;19.080;2023-08-24T00:15:44;100285.91;;;24.16;100.00
53868;BME280;41577;47.470;19.080;2023-08-24T00:15:57;100278.81;;;24.15;100.00
53868;BME280;41577;47.470;19.080;2023-08-24T00:16:09;100287.00;;;24.15;100.00
53868;BME280;41577;47.470;19.080;2023-08-24T00:16:21;100280.44;;;24.16;100.00
53868;BME280;41577;47.470;19.080;2023-08-24T00:16:32;100283.44;;;24.14;100.00
53868;BME280;41577;47.470;19.080;2023-08-24T00:16:45;100283.44;;;24.14;100.00
53868;BME280;41577;47.470;19.080;2023-08-24T00:16:57;100279.91;;;24.14;100.00
53868;BME280;41577;47.470;19.080;2023-08-24T00:17:08;100281.84;;;24.13;100.00
53868;BME280;41577;47.470;19.080;2023-08-24T00:17:20;100279.09;;;24.13;100.00
53868;BME280;41577;47.470;19.080;2023-08-24T00:17:32;100279.09;;;24.13;100.00
53868;BME280;41577;47.470;19.080;2023-08-24T00:17:44;100277.19;;;24.14;100.00
53868;BME280;41577;47.470;19.080;2023-08-24T00:17:56;100278.25;;;24.13;100.00
53868;BME280;41577;47.470;19.080;2023-08-24T00:18:08;100282.63;;;24.14;100.00
53868;BME280;41577;47.470;19.080;2023-08-24T00:18:20;100281.84;;;24.13;100.00
53868;BME280;41577;47.470;19.080;2023-08-24T00:18:32;100277.19;;;24.14;100.00
53868;BME280;41577;47.470;19.080;2023-08-24T00:18:43;100286.44;;;24.13;100.00
53868;BME280;41577;47.470;19.080;2023-08-24T00:18:55;100280.19;;;24.12;100.00
53868;BME280;41577;47.470;19.080;2023-08-24T00:19:07;100277.44;;;24.12;100.00
53868;BME280;41577;47.470;19.080;2023-08-24T00:19:19;100281.84;;;24.13;100.00
53868;BME280;41577;47.470;19.080;2023-08-24T00:19:31;100288.38;;;24.12;100.00
53868;BME280;41577;47.470;19.080;2023-08-24T00:19:43;100273.66;;;24.13;100.00
53868;BME280;41577;47.470;19.080;2023-08-24T00:19:55;100286.44;;;24.13;100.00
53868;BME280;41577;47.470;19.080;2023-08-24T00:20:07;100279.38;;;24.12;100.00
53868;BME280;41577;47.470;19.080;2023-08-24T00:20:19;100282.91;;;24.12;100.00
53868;BME280;41577;47.470;19.080;2023-08-24T00:20:31;100276.63;;;24.12;100.00
53868;BME280;41577;47.470;19.080;2023-08-24T00:20:43;100281.00;;;24.13;100.00
53868;BME280;41577;47.470;19.080;2023-08-24T00:20:55;100281.28;;;24.11;100.00
53868;BME280;41577;47.470;19.080;2023-08-24T00:21:07;100280.19;;;24.12;100.00
53868;BME280;41577;47.470;19.080;2023-08-24T00:21:18;100278.56;;;24.11;100.00
53868;BME280;41577;47.470;19.080;2023-08-24T00:21:30;100275.84;;;24.11;100.00
53868;BME280;41577;47.470;19.080;2023-08-24T00:21:42;100279.38;;;24.12;100.00
53868;BME280;41577;47.470;19.080;2023-08-24T00:21:54;100274.19;;;24.10;100.00
53868;BME280;41577;47.470;19.080;2023-08-24T00:22:06;100277.75;;;24.11;100.00
53868;BME280;41577;47.470;19.080;2023-08-24T00:22:17;100270.66;;;24.10;100.00
53868;BME280;41577;47.470;19.080;2023-08-24T00:22:29;100273.38;;;24.10;100.00
53868;BME280;41577;47.470;19.080;2023-08-24T00:22:41;100271.47;;;24.10;100.00
53868;BME280;41577;47.470;19.080;2023-08-24T00:22:54;100275.84;;;24.11;100.00
53868;BME280;41577;47.470;19.080;2023-08-24T00:23:05;100278.03;;;24.09;100.00
53868;BME280;41577;47.470;19.080;2023-08-24T00:23:17;100276.91;;;24.10;100.00
53868;BME280;41577;47.470;19.080;2023-08-24T00:23:29;100278.81;;;24.10;100.00
53868;BME280;41577;47.470;19.080;2023-08-24T00:23:41;100278.81;;;24.10;100.00
53868;BME280;41577;47.470;19.080;2023-08-24T00:23:53;100272.56;;;24.09;100.00
53868;BME280;41577;47.470;19.080;2023-08-24T00:24:05;100274.19;;;24.10;100.00
53868;BME280;41577;47.470;19.080;2023-08-24T00:24:17;100276.09;;;24.10;100.00
53868;BME280;41577;47.470;19.080;2023-08-24T00:24:28;100278.56;;;24.11;100.00
53868;BME280;41577;47.470;19.080;2023-08-24T00:24:40;100276.09;;;24.10;100.00
53868;BME280;41577;47.470;19.080;2023-08-24T00:24:52;100270.66;;;24.10;100.00
53868;BME280;41577;47.470;19.080;2023-08-24T00:25:06;100271.47;;;24.10;100.00
53868;BME280;41577;47.470;19.080;2023-08-24T00:25:18;100271.75;;;24.09;100.00
53868;BME280;41577;47.470;19.080;2023-08-24T00:25:30;100274.47;;;24.09;100.00
53868;BME280;41577;47.470;19.080;2023-08-24T00:25:42;100275.28;;;24.09;100.00
53868;BME280;41577;47.470;19.080;2023-08-24T00:25:54;100272.84;;;24.08;100.00
53868;BME280;41577;47.470;19.080;2023-08-24T00:26:06;100276.38;;;24.08;100.00
53868;BME280;41577;47.470;19.080;2023-08-24T00:26:18;100270.91;;;24.08;100.00
53868;BME280;41577;47.470;19.080;2023-08-24T00:26:29;100269.28;;;24.07;100.00
53868;BME280;41577;47.470;19.080;2023-08-24T00:26:41;100272.84;;;24.08;100.00
53868;BME280;41577;47.470;19.080;2023-08-24T00:26:53;100270.38;;;24.06;100.00
53868;BME280;41577;47.470;19.080;2023-08-24T00:27:05;100267.66;;;24.06;100.00
53868;BME280;41577;47.470;19.080;2023-08-24T00:27:16;100274.22;;;24.05;100.00
53868;BME280;41577;47.470;19.080;2023-08-24T00:27:28;100276.94;;;24.05;100.00
53868;BME280;41577;47.470;19.080;2023-08-24T00:27:40;100275.03;;;24.06;100.00
53868;BME280;41577;47.470;19.080;2023-08-24T00:27:52;100274.47;;;24.04;100.00
53868;BME280;41577;47.470;19.080;2023-08-24T00:28:05;100272.59;;;24.04;100.00
53868;BME280;41577;47.470;19.080;2023-08-24T00:28:16;100278.31;;;24.03;100.00
53868;BME280;41577;47.470;19.080;2023-08-24T00:28:28;100272.59;;;24.04;100.00
53868;BME280;41577;47.470;19.080;2023-08-24T00:28:40;100279.13;;;24.03;100.00
53868;BME280;41577;47.470;19.080;2023-08-24T00:28:52;100277.22;;;24.04;100.00
53868;BME280;41577;47.470;19.080;2023-08-24T00:29:04;100270.13;;;24.03;100.00
53868;BME280;41577;47.470;19.080;2023-08-24T00:29:17;100275.59;;;24.03;100.00
53868;BME280;41577;47.470;19.080;2023-08-24T00:29:28;100277.50;;;24.02;100.00
53868;BME280;41577;47.470;19.080;2023-08-24T00:29:40;100278.31;;;24.03;100.00
53868;BME280;41577;47.470;19.080;2023-08-24T00:29:52;100269.06;;;23.98;100.00
53868;BME280;41577;47.470;19.080;2023-08-24T00:30:06;100282.97;;;24.02;100.00
53868;BME280;41577;47.470;19.080;2023-08-24T00:30:18;100276.66;;;24.01;100.00
53868;BME280;41577;47.470;19.080;2023-08-24T00:30:30;100284.84;;;24.01;100.00
53868;BME280;41577;47.470;19.080;2023-08-24T00:30:42;100275.84;;;24.01;100.00
53868;BME280;41577;47.470;19.080;2023-08-24T00:30:54;100280.50;;;24.00;100.00
53868;BME280;41577;47.470;19.080;2023-08-24T00:31:06;100284.03;;;24.01;100.00
53868;BME280;41577;47.470;19.080;2023-08-24T00:31:17;100282.41;;;24.00;100.00
53868;BME280;41577;47.470;19.080;2023-08-24T00:31:29;100281.59;;;23.99;100.00
53868;BME280;41577;47.470;19.080;2023-08-24T00:31:42;100278.88;;;23.99;100.00
53868;BME280;41577;47.470;19.080;2023-08-24T00:31:55;100282.41;;;24.00;100.00
53868;BME280;41577;47.470;19.080;2023-08-24T00:32:06;100279.16;;;23.98;100.00
53868;BME280;41577;47.470;19.080;2023-08-24T00:32:18;100280.78;;;23.99;100.00
53868;BME280;41577;47.470;19.080;2023-08-24T00:32:30;100281.06;;;23.97;100.00
53868;BME280;41577;47.470;19.080;2023-08-24T00:32:42;100279.16;;;23.98;100.00
53868;BME280;41577;47.470;19.080;2023-08-24T00:32:54;100286.22;;;23.99;100.00
53868;BME280;41577;47.470;19.080;2023-08-24T00:33:08;100289.25;;;23.97;100.00
53868;BME280;41577;47.470;19.080;2023-08-24T00:33:20;100282.16;;;23.96;100.00
53868;BME280;41577;47.470;19.080;2023-08-24T00:33:32;100282.97;;;23.97;100.00
53868;BME280;41577;47.470;19.080;2023-08-24T00:33:44;100277.81;;;23.95;100.00
53868;BME280;41577;47.470;19.080;2023-08-24T00:33:56;100282.97;;;23.97;100.00
53868;BME280;41577;47.470;19.080;2023-08-24T00:34:09;100282.16;;;23.96;100.00
53868;BME280;41577;47.470;19.080;2023-08-24T00:34:21;100283.25;;;23.95;100.00
53868;BME280;41577;47.470;19.080;2023-08-24T00:34:32;100282.44;;;23.95;100.00
53868;BME280;41577;47.470;19.080;2023-08-24T00:34:44;100288.72;;;23.95;100.00
53868;BME280;41577;47.470;19.080;2023-08-24T00:34:56;100284.88;;;23.96;100.00
53868;BME280;41577;47.470;19.080;2023-08-24T00:35:09;100280.53;;;23.95;100.00
53868;BME280;41577;47.470;19.080;2023-08-24T00:35:21;100284.34;;;23.94;100.00
53868;BME280;41577;47.470;19.080;2023-08-24T00:35:32;100280.78;;;23.94;100.00
53868;BME280;41577;47.470;19.080;2023-08-24T00:35:44;100278.06;;;23.94;100.00
53868;BME280;41577;47.470;19.080;2023-08-24T00:35:59;100293.34;;;23.95;100.00
53868;BME280;41577;47.470;19.080;2023-08-24T00:36:11;100288.72;;;23.95;100.00
53868;BME280;41577;47.470;19.080;2023-08-24T00:36:23;100278.06;;;23.94;100.00
53868;BME280;41577;47.470;19.080;2023-08-24T00:36:35;100285.44;;;23.93;100.00
53868;BME280;41577;47.470;19.080;2023-08-24T00:36:48;100283.53;;;23.94;100.00
53868;BME280;41577;47.470;19.080;2023-08-24T00:37:00;100282.72;;;23.93;100.00
53868;BME280;41577;47.470;19.080;2023-08-24T00:37:12;100281.91;;;23.93;100.00
53868;BME280;41577;47.470;19.080;2023-08-24T00:37:24;100288.16;;;23.93;100.00
53868;BME280;41577;47.470;19.080;2023-08-24T00:37:36;100287.06;;;23.94;100.00
53868;BME280;41577;47.470;19.080;2023-08-24T00:37:48;100282.72;;;23.93;100.00
53868;BME280;41577;47.470;19.080;2023-08-24T00:38:00;100289.78;;;23.94;100.00
53868;BME280;41577;47.470;19.080;2023-08-24T00:38:12;100283.53;;;23.94;100.00
53868;BME280;41577;47.470;19.080;2023-08-24T00:38:24;100284.63;;;23.93;100.00
53868;BME280;41577;47.470;19.080;2023-08-24T00:38:36;100286.25;;;23.94;100.00
53868;BME280;41577;47.470;19.080;2023-08-24T00:38:47;100280.78;;;23.94;100.00
53868;BME280;41577;47.470;19.080;2023-08-24T00:38:59;100288.16;;;23.93;100.00
53868;BME280;41577;47.470;19.080;2023-08-24T00:39:11;100289.78;;;23.94;100.00
53868;BME280;41577;47.470;19.080;2023-08-24T00:39:23;100282.72;;;23.93;100.00
53868;BME280;41577;47.470;19.080;2023-08-24T00:39:35;100290.91;;;23.93;100.00
53868;BME280;41577;47.470;19.080;2023-08-24T00:39:46;100285.72;;;23.92;100.00
53868;BME280;41577;47.470;19.080;2023-08-24T00:40:00;100279.44;;;23.91;100.00
53868;BME280;41577;47.470;19.080;2023-08-24T00:40:13;100286.53;;;23.92;100.00
53868;BME280;41577;47.470;19.080;2023-08-24T00:40:25;100283.78;;;23.92;100.00
53868;BME280;41577;47.470;19.080;2023-08-24T00:40:37;100285.72;;;23.92;100.00
53868;BME280;41577;47.470;19.080;2023-08-24T00:40:48;100286.53;;;23.92;100.00
53868;BME280;41577;47.470;19.080;2023-08-24T00:41:00;100286.53;;;23.92;100.00
53868;BME280;41577;47.470;19.080;2023-08-24T00:41:13;100284.63;;;23.93;100.00
53868;BME280;41577;47.470;19.080;2023-08-24T00:41:25;100279.44;;;23.91;100.00
53868;BME280;41577;47.470;19.080;2023-08-24T00:41:36;100286.53;;;23.92;100.00
53868;BME280;41577;47.470;19.080;2023-08-24T00:41:48;100282.97;;;23.92;100.00
53868;BME280;41577;47.470;19.080;2023-08-24T00:42:00;100290.34;;;23.91;100.00
53868;BME280;41577;47.470;19.080;2023-08-24T00:42:12;100282.16;;;23.91;100.00
53868;BME280;41577;47.470;19.080;2023-08-24T00:42:24;100284.91;;;23.91;100.00
53868;BME280;41577;47.470;19.080;2023-08-24T00:42:38;100284.09;;;23.91;100.00
53868;BME280;41577;47.470;19.080;2023-08-24T00:42:50;100282.44;;;23.90;100.00
53868;BME280;41577;47.470;19.080;2023-08-24T00:43:03;100287.09;;;23.89;100.00
53868;BME280;41577;47.470;19.080;2023-08-24T00:43:14;100282.44;;;23.90;100.00
53868;BME280;41577;47.470;19.080;2023-08-24T00:43:27;100285.47;;;23.88;100.00
53868;BME280;41577;47.470;19.080;2023-08-24T00:43:38;100281.63;;;23.89;100.00
53868;BME280;41577;47.470;19.080;2023-08-24T00:43:50;100286.28;;;23.89;100.00
53868;BME280;41577;47.470;19.080;2023-08-24T00:44:02;100282.75;;;23.88;100.00
53868;BME280;41577;47.470;19.080;2023-08-24T00:44:15;100283.81;;;23.87;100.00
53868;BME280;41577;47.470;19.080;2023-08-24T00:44:27;100284.63;;;23.88;100.00
53868;BME280;41577;47.470;19.080;2023-08-24T00:44:39;100282.75;;;23.88;100.00
53868;BME280;41577;47.470;19.080;2023-08-24T00:44:50;100281.09;;;23.87;100.00
53868;BME280;41577;47.470;19.080;2023-08-24T00:45:03;100278.38;;;23.87;100.00
53868;BME280;41577;47.470;19.080;2023-08-24T00:45:14;100283.00;;;23.87;100.00
53868;BME280;41577;47.470;19.080;2023-08-24T00:45:26;100285.72;;;23.87;100.00
53868;BME280;41577;47.470;19.080;2023-08-24T00:45:38;100283.00;;;23.87;100.00
53868;BME280;41577;47.470;19.080;2023-08-24T00:45:51;100291.19;;;23.87;100.00
53868;BME280;41577;47.470;19.080;2023-08-24T00:46:03;100275.94;;;23.86;100.00
53868;BME280;41577;47.470;19.080;2023-08-24T00:46:18;100280.28;;;23.87;100.00
53868;BME280;41577;47.470;19.080;2023-08-24T00:46:31;100286.00;;;23.85;100.00
53868;BME280;41577;47.470;19.080;2023-08-24T00:46:44;100281.38;;;23.86;100.00
53868;BME280;41577;47.470;19.080;2023-08-24T00:46:56;100283.28;;;23.85;100.00
53868;BME280;41577;47.470;19.080;2023-08-24T00:47:09;100278.94;;;23.84;100.00
53868;BME280;41577;47.470;19.080;2023-08-24T00:47:21;100282.47;;;23.85;100.00
53868;BME280;41577;47.470;19.080;2023-08-24T00:47:33;100278.94;;;23.84;100.00
53868;BME280;41577;47.470;19.080;2023-08-24T00:47:46;100281.66;;;23.84;100.00
53868;BME280;41577;47.470;19.080;2023-08-24T00:48:01;100277.28;;;23.83;100.00
53868;BME280;41577;47.470;19.080;2023-08-24T00:48:14;100282.72;;;23.83;100.00
53868;BME280;41577;47.470;19.080;2023-08-24T00:48:25;100277.28;;;23.83;100.00
53868;BME280;41577;47.470;19.080;2023-08-24T00:48:39;100282.72;;;23.83;100.00
53868;BME280;41577;47.470;19.080;2023-08-24T00:48:50;100282.72;;;23.83;100.00
53868;BME280;41577;47.470;19.080;2023-08-24T00:49:02;100281.09;;;23.82;100.00
53868;BME280;41577;47.470;19.080;2023-08-24T00:49:16;100283.03;;;23.82;100.00
53868;BME280;41577;47.470;19.080;2023-08-24T00:49:28;100279.47;;;23.81;100.00
53868;BME280;41577;47.470;19.080;2023-08-24T00:49:40;100282.19;;;23.81;100.00
53868;BME280;41577;47.470;19.080;2023-08-24T00:49:53;100282.19;;;23.81;100.00
53868;BME280;41577;47.470;19.080;2023-08-24T00:50:06;100280.56;;;23.80;100.00
53868;BME280;41577;47.470;19.080;2023-08-24T00:50:19;100283.28;;;23.80;100.00
53868;BME280;41577;47.470;19.080;2023-08-24T00:50:31;100281.69;;;23.79;100.00
53868;BME280;41577;47.470;19.080;2023-08-24T00:50:43;100285.22;;;23.79;100.00
53868;BME280;41577;47.470;19.080;2023-08-24T00:50:55;100275.38;;;23.78;100.00
53868;BME280;41577;47.470;19.080;2023-08-24T00:51:07;100284.41;;;23.79;100.00
53868;BME280;41577;47.470;19.080;2023-08-24T00:51:19;100280.84;;;23.78;100.00
53868;BME280;41577;47.470;19.080;2023-08-24T00:51:31;100281.94;;;23.77;100.00
53868;BME280;41577;47.470;19.080;2023-08-24T00:51:43;100275.69;;;23.77;100.00
53868;BME280;41577;47.470;19.080;2023-08-24T00:51:55;100278.41;;;23.77;100.00
53868;BME280;41577;47.470;19.080;2023-08-24T00:52:07;100280.59;;;23.75;100.00
53868;BME280;41577;47.470;19.080;2023-08-24T00:52:19;100281.13;;;23.77;100.00
53868;BME280;41577;47.470;19.080;2023-08-24T00:52:31;100284.13;;;23.75;100.00
53868;BME280;41577;47.470;19.080;2023-08-24T00:52:44;100280.59;;;23.75;100.00
53868;BME280;41577;47.470;19.080;2023-08-24T00:52:57;100274.31;;;23.74;100.00
53868;BME280;41577;47.470;19.080;2023-08-24T00:53:09;100280.81;;;23.73;100.00
53868;BME280;41577;47.470;19.080;2023-08-24T00:53:23;100277.88;;;23.75;100.00
53868;BME280;41577;47.470;19.080;2023-08-24T00:53:36;100285.22;;;23.74;100.00
53868;BME280;41577;47.470;19.080;2023-08-24T00:53:50;100284.34;;;23.74;100.00
53868;BME280;41577;47.470;19.080;2023-08-24T00:54:02;100276.19;;;23.74;100.00
53868;BME280;41577;47.470;19.080;2023-08-24T00:54:15;100279.78;;;23.74;100.00
53868;BME280;41577;47.470;19.080;2023-08-24T00:54:27;100278.09;;;23.73;100.00
53868;BME280;41577;47.470;19.080;2023-08-24T00:54:39;100281.63;;;23.74;100.00
53868;BME280;41577;47.470;19.080;2023-08-24T00:54:51;100289.81;;;23.74;100.00
53868;BME280;41577;47.470;19.080;2023-08-24T00:55:04;100291.50;;;23.75;100.00
53868;BME280;41577;47.470;19.080;2023-08-24T00:55:17;100280.00;;;23.73;100.00
53868;BME280;41577;47.470;19.080;2023-08-24T00:55:29;100272.66;;;23.73;100.00
53868;BME280;41577;47.470;19.080;2023-08-24T00:55:41;100282.75;;;23.73;100.00
53868;BME280;41577;47.470;19.080;2023-08-24T00:55:53;100282.75;;;23.73;100.00
53868;BME280;41577;47.470;19.080;2023-08-24T00:56:05;100275.63;;;23.72;100.00
53868;BME280;41577;47.470;19.080;2023-08-24T00:56:18;100282.75;;;23.73;100.00
53868;BME280;41577;47.470;19.080;2023-08-24T00:56:30;100286.53;;;23.72;100.00
53868;BME280;41577;47.470;19.080;2023-08-24T00:56:42;100284.94;;;23.71;100.00
53868;BME280;41577;47.470;19.080;2023-08-24T00:56:54;100279.47;;;23.71;100.00
53868;BME280;41577;47.470;19.080;2023-08-24T00:57:06;100283.00;;;23.71;100.00
53868;BME280;41577;47.470;19.080;2023-08-24T00:57:18;100283.31;;;23.70;100.00
53868;BME280;41577;47.470;19.080;2023-08-24T00:57:31;100280.56;;;23.70;100.00
53868;BME280;41577;47.470;19.080;2023-08-24T00:57:45;100281.66;;;23.69;100.00
53868;BME280;41577;47.470;19.080;2023-08-24T00:57:57;100285.19;;;23.69;100.00
53868;BME280;41577;47.470;19.080;2023-08-24T00:58:10;100284.38;;;23.69;100.00
53868;BME280;41577;47.470;19.080;2023-08-24T00:58:23;100287.38;;;23.67;100.00
53868;BME280;41577;47.470;19.080;2023-08-24T00:58:35;100280.03;;;23.68;100.00
53868;BME280;41577;47.470;19.080;2023-08-24T00:58:47;100288.22;;;23.68;100.00
53868;BME280;41577;47.470;19.080;2023-08-24T00:58:59;100293.66;;;23.68;100.00
53868;BME280;41577;47.470;19.080;2023-08-24T00:59:11;100282.75;;;23.68;100.00
53868;BME280;41577;47.470;19.080;2023-08-24T00:59:23;100283.84;;;23.67;100.00
53868;BME280;41577;47.470;19.080;2023-08-24T00:59:35;100287.66;;;23.66;100.00
53868;BME280;41577;47.470;19.080;2023-08-24T00:59:49;100286.56;;;23.67;100.00
53868;BME280;41577;47.470;19.080;2023-08-24T01:00:03;100289.28;;;23.67;100.00
53868;BME280;41577;47.470;19.080;2023-08-24T01:00:16;100288.47;;;23.66;100.00
53868;BME280;41577;47.470;19.080;2023-08-24T01:00:27;100286.84;;;23.65;100.00
53868;BME280;41577;47.470;19.080;2023-08-24T01:00:39;100286.84;;;23.65;100.00
53868;BME280;41577;47.470;19.080;2023-08-24T01:00:53;100284.94;;;23.66;100.00
53868;BME280;41577;47.470;19.080;2023-08-24T01:01:05;100293.13;;;23.66;100.00
53868;BME280;41577;47.470;19.080;2023-08-24T01:01:17;100283.28;;;23.65;100.00
53868;BME280;41577;47.470;19.080;2023-08-24T01:01:30;100289.59;;;23.65;100.00
53868;BME280;41577;47.470;19.080;2023-08-24T01:01:45;100288.75;;;23.65;100.00
53868;BME280;41577;47.470;19.080;2023-08-24T01:01:58;100282.47;;;23.64;100.00